Time;durP1;ratioP1;P1;durP2;ratioP2;P2;SDS_P1;SDS_P2;PMS_P1;PMS_P2;Temp;Humidity;BMP_temperature;BMP_pressure;BME280_temperature;BME280_humidity;BME280_pressure;Samples;Min_cycle;Max_cycle;Signal;HPM_P1;HPM_P2
2021/12/15 00:02:25;;;;;;;53.33;32.42;;;8.80;1.00;;;;;;6072839;23;20201;-78
2021/12/15 00:04:55;;;;;;;52.53;32.95;;;8.80;1.00;;;;;;6084118;23;20199;-79
2021/12/15 00:07:27;;;;;;;50.40;32.13;;;8.80;1.00;;;;;;6082301;23;20213;-78
2021/12/15 00:09:56;;;;;;;44.63;30.83;;;8.80;1.00;;;;;;6083777;23;20221;-80
2021/12/15 00:12:28;;;;;;;52.45;32.95;;;8.80;1.00;;;;;;6077187;23;20204;-80
2021/12/15 00:14:56;;;;;;;54.38;34.40;;;8.80;1.00;;;;;;6082073;23;20193;-77
2021/12/15 00:17:24;;;;;;;59.38;35.47;;;8.80;1.00;;;;;;6075373;23;20220;-77
2021/12/15 00:19:52;;;;;;;54.13;33.63;;;8.80;1.00;;;;;;6066383;23;21068;-79
2021/12/15 00:22:19;;;;;;;51.78;32.20;;;8.80;1.00;;;;;;6068331;23;20373;-77
2021/12/15 00:24:46;;;;;;;48.70;32.22;;;8.80;1.00;;;;;;6065510;23;20190;-79
2021/12/15 00:27:16;;;;;;;53.38;32.08;;;8.80;1.00;;;;;;6069496;23;20220;-78
2021/12/15 00:29:43;;;;;;;51.58;35.13;;;8.70;1.00;;;;;;6067815;23;20312;-79
2021/12/15 00:32:10;;;;;;;57.85;35.55;;;8.70;1.00;;;;;;6069699;23;20229;-79
2021/12/15 00:34:40;;;;;;;51.92;33.95;;;8.80;1.00;;;;;;6069246;23;20205;-77
2021/12/15 00:37:09;;;;;;;53.33;32.85;;;8.80;1.00;;;;;;6076021;23;20235;-77
2021/12/15 00:39:37;;;;;;;48.42;31.75;;;8.80;1.00;;;;;;6072600;23;20200;-80
2021/12/15 00:42:05;;;;;;;45.78;32.20;;;8.80;1.00;;;;;;6070144;23;20174;-78
2021/12/15 00:44:33;;;;;;;51.90;31.20;;;8.80;1.00;;;;;;6084584;23;20257;-77
2021/12/15 00:47:00;;;;;;;50.42;30.73;;;8.80;1.00;;;;;;6083257;23;20259;-78
2021/12/15 00:49:27;;;;;;;50.72;31.85;;;8.90;1.00;;;;;;6078395;23;20250;-79
2021/12/15 00:51:54;;;;;;;48.70;30.60;;;9.00;1.00;;;;;;6070164;23;20272;-79
2021/12/15 00:54:22;;;;;;;43.85;31.55;;;9.00;1.00;;;;;;6064705;23;20236;-77
2021/12/15 00:56:50;;;;;;;48.67;30.27;;;8.90;1.00;;;;;;6064190;23;20253;-80
2021/12/15 00:59:17;;;;;;;49.83;31.30;;;8.90;1.00;;;;;;6067576;23;20300;-79
2021/12/15 01:01:46;;;;;;;49.28;29.75;;;8.90;1.00;;;;;;6068433;23;20277;-79
2021/12/15 01:04:15;;;;;;;45.42;29.48;;;8.90;1.00;;;;;;6063810;23;20277;-76
2021/12/15 01:06:51;;;;;;;45.25;29.80;;;8.90;1.00;;;;;;6077637;23;20444;-77
2021/12/15 01:09:26;;;;;;;46.72;29.80;;;8.90;1.00;;;;;;6073011;23;20223;-79
2021/12/15 01:12:11;;;;;;;46.17;30.33;;;8.90;1.00;;;;;;6082784;23;20631;-80
2021/12/15 01:20:20;;;;;;;48.55;31.00;;;8.80;1.00;;;;;;6078067;23;20193;-78
2021/12/15 01:22:50;;;;;;;44.83;29.10;;;8.80;1.00;;;;;;6076776;23;20253;-77
2021/12/15 01:25:28;;;;;;;49.72;31.30;;;8.80;1.00;;;;;;6079031;23;20208;-77
2021/12/15 01:27:55;;;;;;;46.93;29.27;;;8.90;1.00;;;;;;6069301;23;20220;-77
2021/12/15 01:30:24;;;;;;;47.88;31.05;;;8.80;1.00;;;;;;6078230;23;20424;-77
2021/12/15 01:32:54;;;;;;;48.87;31.23;;;8.90;1.00;;;;;;6079557;23;21089;-78
2021/12/15 01:35:22;;;;;;;43.92;28.35;;;8.90;1.00;;;;;;6080039;23;20390;-79
2021/12/15 01:37:50;;;;;;;49.90;30.37;;;8.90;1.00;;;;;;6075231;23;20198;-76
2021/12/15 01:40:28;;;;;;;57.55;33.92;;;8.80;1.00;;;;;;6073002;23;20413;-76
2021/12/15 01:42:55;;;;;;;50.25;30.88;;;8.80;1.00;;;;;;6076860;23;20227;-77
2021/12/15 01:48:13;;;;;;;48.10;29.47;;;8.90;1.00;;;;;;6073355;23;20207;-77
2021/12/15 01:50:40;;;;;;;48.10;30.50;;;8.90;1.00;;;;;;6076188;23;20894;-78
2021/12/15 01:53:09;;;;;;;43.42;28.52;;;9.00;1.00;;;;;;6065498;23;20902;-78
2021/12/15 01:55:36;;;;;;;51.47;31.52;;;9.00;1.00;;;;;;6066031;23;20244;-78
2021/12/15 01:58:04;;;;;;;47.10;28.93;;;9.00;1.00;;;;;;6072179;23;20217;-78
2021/12/15 02:00:37;;;;;;;42.20;28.90;;;8.90;1.00;;;;;;6077806;23;20367;-79
2021/12/15 02:03:04;;;;;;;49.72;31.27;;;8.90;1.00;;;;;;6073449;23;20197;-80
2021/12/15 02:05:35;;;;;;;47.58;30.88;;;8.90;1.00;;;;;;6060457;23;20285;-79
2021/12/15 02:08:03;;;;;;;48.37;29.70;;;8.90;1.00;;;;;;6057099;23;20212;-77
2021/12/15 02:10:33;;;;;;;45.35;28.83;;;8.90;1.00;;;;;;6064813;23;20430;-78
2021/12/15 02:13:04;;;;;;;44.15;28.83;;;8.90;1.00;;;;;;6065594;23;20515;-79
2021/12/15 02:15:35;;;;;;;48.42;29.95;;;8.90;1.00;;;;;;6065840;23;21205;-80
2021/12/15 02:18:04;;;;;;;50.95;29.92;;;8.90;1.00;;;;;;6066304;23;20213;-79
2021/12/15 02:20:36;;;;;;;52.40;29.13;;;8.80;1.00;;;;;;6063377;23;20202;-79
2021/12/15 02:23:03;;;;;;;47.53;29.40;;;8.90;1.00;;;;;;6068086;23;20269;-78
2021/12/15 02:25:33;;;;;;;44.63;28.20;;;8.90;1.00;;;;;;6066571;23;20247;-79
2021/12/15 02:28:02;;;;;;;44.30;29.52;;;8.90;1.00;;;;;;6066152;23;20215;-80
2021/12/15 02:30:46;;;;;;;43.42;26.80;;;9.00;1.00;;;;;;6064925;23;20198;-78
2021/12/15 02:33:41;;;;;;;43.55;28.42;;;9.00;1.00;;;;;;6067142;23;20190;-80
2021/12/15 02:38:56;;;;;;;42.42;28.42;;;9.00;1.00;;;;;;6073919;23;20193;-75
2021/12/15 02:41:25;;;;;;;42.65;26.45;;;8.90;1.00;;;;;;6073424;23;20213;-78
2021/12/15 02:43:54;;;;;;;40.25;27.15;;;9.00;1.00;;;;;;6071565;23;20270;-78
2021/12/15 02:46:22;;;;;;;42.47;27.45;;;8.90;1.00;;;;;;6064914;23;20290;-78
2021/12/15 02:48:50;;;;;;;41.35;27.25;;;8.90;1.00;;;;;;6060118;23;20278;-81
2021/12/15 02:51:20;;;;;;;44.03;26.27;;;9.00;1.00;;;;;;6061015;23;20253;-79
2021/12/15 02:53:47;;;;;;;43.03;27.35;;;8.90;1.00;;;;;;6061325;23;20240;-76
2021/12/15 02:56:15;;;;;;;40.50;27.02;;;8.90;1.00;;;;;;6065406;23;20196;-78
2021/12/15 02:58:50;;;;;;;39.90;26.00;;;8.90;1.00;;;;;;6063263;23;20594;-79
2021/12/15 03:01:25;;;;;;;39.42;25.52;;;8.90;1.00;;;;;;6064768;23;20401;-79
2021/12/15 03:04:12;;;;;;;35.33;24.08;;;8.90;1.00;;;;;;6063959;23;20988;-78
2021/12/15 03:06:49;;;;;;;41.85;27.85;;;8.90;1.00;;;;;;6065607;23;20226;-76
2021/12/15 03:15:17;;;;;;;39.78;25.55;;;8.80;1.00;;;;;;6061318;23;20216;-79
2021/12/15 03:17:54;;;;;;;35.80;24.80;;;8.90;1.00;;;;;;6052331;23;20826;-80
2021/12/15 03:20:21;;;;;;;36.10;23.43;;;8.90;1.00;;;;;;6061136;23;20213;-79
2021/12/15 03:22:51;;;;;;;38.05;24.90;;;8.90;1.00;;;;;;6065590;23;21212;-78
2021/12/15 03:25:18;;;;;;;39.63;24.85;;;8.90;1.00;;;;;;6068033;23;20212;-77
2021/12/15 03:33:37;;;;;;;37.33;25.03;;;9.00;1.00;;;;;;6055716;23;20369;-79
2021/12/15 03:36:09;;;;;;;38.20;24.17;;;9.00;1.00;;;;;;6064237;23;20974;-78
2021/12/15 03:38:42;;;;;;;38.83;26.67;;;8.90;1.00;;;;;;6075339;23;20380;-76
2021/12/15 03:41:11;;;;;;;36.37;25.10;;;8.90;1.00;;;;;;6073752;23;20193;-79
2021/12/15 03:43:39;;;;;;;37.50;25.77;;;9.00;1.00;;;;;;6067376;23;20405;-77
2021/12/15 03:46:09;;;;;;;37.77;24.20;;;9.00;1.00;;;;;;6076185;23;20385;-77
2021/12/15 03:48:39;;;;;;;36.20;24.30;;;9.00;1.00;;;;;;6078906;23;20497;-78
2021/12/15 03:51:06;;;;;;;35.85;24.13;;;9.00;1.00;;;;;;6075205;23;20193;-80
2021/12/15 03:53:36;;;;;;;37.53;26.07;;;9.00;1.00;;;;;;6070484;23;20211;-82
2021/12/15 03:56:08;;;;;;;40.28;25.85;;;9.00;1.00;;;;;;6070388;23;20421;-79
2021/12/15 03:58:37;;;;;;;35.83;23.97;;;9.00;1.00;;;;;;6064206;23;20209;-79
2021/12/15 04:01:11;;;;;;;35.15;22.75;;;9.10;1.00;;;;;;6066694;23;20401;-77
2021/12/15 04:03:40;;;;;;;36.00;25.15;;;9.20;1.00;;;;;;6071106;23;20843;-77
2021/12/15 04:06:10;;;;;;;32.30;22.27;;;9.20;1.00;;;;;;6098584;23;20210;-79
2021/12/15 04:08:40;;;;;;;37.25;23.70;;;9.20;1.00;;;;;;6065822;23;20415;-77
2021/12/15 04:11:11;;;;;;;32.90;22.27;;;9.20;1.00;;;;;;6061026;23;20197;-79
2021/12/15 04:13:39;;;;;;;34.00;23.60;;;9.20;1.00;;;;;;6064060;23;20200;-78
2021/12/15 04:16:09;;;;;;;32.00;21.80;;;9.20;1.00;;;;;;6064628;23;20422;-79
2021/12/15 04:18:37;;;;;;;32.95;22.85;;;9.10;1.00;;;;;;6075223;23;20918;-78
2021/12/15 04:21:05;;;;;;;34.42;23.60;;;9.20;1.00;;;;;;6066624;23;20193;-80
2021/12/15 04:23:33;;;;;;;34.77;24.53;;;9.20;1.00;;;;;;6066601;23;20204;-78
2021/12/15 04:26:01;;;;;;;34.25;23.63;;;9.20;1.00;;;;;;6064328;23;20421;-77
2021/12/15 04:28:33;;;;;;;36.55;23.20;;;9.20;1.00;;;;;;6066615;23;20207;-78
2021/12/15 04:31:04;;;;;;;33.65;23.73;;;9.30;1.00;;;;;;6064257;23;20309;-78
2021/12/15 04:33:37;;;;;;;33.72;22.95;;;9.30;1.00;;;;;;6065440;23;20220;-79
2021/12/15 04:36:07;;;;;;;33.35;22.73;;;9.30;1.00;;;;;;6063383;23;20196;-79
2021/12/15 04:38:39;;;;;;;32.30;21.90;;;9.30;1.00;;;;;;6066020;23;20203;-80
2021/12/15 04:41:09;;;;;;;34.63;23.70;;;9.30;1.00;;;;;;6066817;23;20236;-80
2021/12/15 04:43:40;;;;;;;34.30;21.85;;;9.30;1.00;;;;;;6063529;23;21192;-78
2021/12/15 04:46:10;;;;;;;34.00;22.58;;;9.30;1.00;;;;;;6067046;23;20190;-78
2021/12/15 04:48:39;;;;;;;33.88;24.35;;;9.20;1.00;;;;;;6065499;23;20222;-80
2021/12/15 04:51:07;;;;;;;31.47;22.27;;;9.30;1.00;;;;;;6067304;23;21089;-78
2021/12/15 04:53:37;;;;;;;30.20;21.30;;;9.20;1.00;;;;;;6065881;23;20407;-79
2021/12/15 04:56:05;;;;;;;31.52;22.52;;;9.30;1.00;;;;;;6067280;23;21111;-79
2021/12/15 04:58:33;;;;;;;28.80;20.47;;;9.20;1.00;;;;;;6065797;23;20296;-79
2021/12/15 05:01:06;;;;;;;28.03;20.87;;;9.30;1.00;;;;;;6063757;23;20414;-79
2021/12/15 05:03:38;;;;;;;28.87;21.07;;;9.30;1.00;;;;;;6065045;23;20485;-80
2021/12/15 05:06:08;;;;;;;29.77;20.87;;;9.30;1.00;;;;;;6069357;23;20421;-82
2021/12/15 05:08:36;;;;;;;29.87;21.87;;;9.30;1.00;;;;;;6070029;23;20493;-81
2021/12/15 05:11:03;;;;;;;30.63;20.20;;;9.30;1.00;;;;;;6070551;23;20993;-81
2021/12/15 05:13:30;;;;;;;32.58;23.27;;;9.20;1.00;;;;;;6081006;23;20202;-80
2021/12/15 05:16:03;;;;;;;33.47;23.83;;;9.20;1.00;;;;;;6083243;23;20188;-79
2021/12/15 05:18:30;;;;;;;28.70;20.83;;;9.30;1.00;;;;;;6070689;23;20228;-81
2021/12/15 05:20:59;;;;;;;28.00;19.63;;;9.30;1.00;;;;;;6064854;23;20266;-82
2021/12/15 05:23:31;;;;;;;33.00;22.27;;;9.30;1.00;;;;;;6066030;23;20369;-81
2021/12/15 05:26:01;;;;;;;31.83;23.00;;;9.20;1.00;;;;;;6069508;23;20491;-78
2021/12/15 05:28:29;;;;;;;31.33;22.40;;;9.20;1.00;;;;;;6065188;23;20213;-81
2021/12/15 05:30:58;;;;;;;31.20;22.10;;;9.20;1.00;;;;;;6066212;23;20394;-82
2021/12/15 05:33:26;;;;;;;31.27;23.05;;;9.30;1.00;;;;;;6066992;23;20424;-82
2021/12/15 05:35:55;;;;;;;27.87;20.30;;;9.20;1.00;;;;;;6068335;23;20189;-87
2021/12/15 05:38:23;;;;;;;33.92;21.77;;;9.20;1.00;;;;;;6068318;23;20394;-87
2021/12/15 05:40:50;;;;;;;31.40;22.97;;;9.20;1.00;;;;;;6087984;23;20201;-82
2021/12/15 05:43:17;;;;;;;31.30;22.13;;;9.20;1.00;;;;;;6065239;23;20827;-85
2021/12/15 05:45:45;;;;;;;30.70;22.50;;;9.20;1.00;;;;;;6069803;23;20512;-82
2021/12/15 05:48:15;;;;;;;32.00;22.30;;;9.20;1.00;;;;;;6070147;23;20642;-83
2021/12/15 05:50:45;;;;;;;33.28;22.15;;;9.20;1.00;;;;;;6065676;23;20193;-81
2021/12/15 05:53:12;;;;;;;30.83;22.92;;;9.20;1.00;;;;;;6064808;23;20202;-78
2021/12/15 05:55:41;;;;;;;29.80;21.63;;;9.20;1.00;;;;;;6071081;23;20293;-77
2021/12/15 05:58:08;;;;;;;32.45;21.58;;;9.20;1.00;;;;;;6059492;23;20219;-78
2021/12/15 06:00:38;;;;;;;33.07;21.90;;;9.10;1.00;;;;;;6061074;23;20198;-78
2021/12/15 06:03:06;;;;;;;31.70;22.37;;;9.10;1.00;;;;;;6063365;23;20414;-78
2021/12/15 06:05:34;;;;;;;32.55;21.80;;;9.10;1.00;;;;;;6069923;23;20656;-77
2021/12/15 06:08:04;;;;;;;31.97;23.47;;;9.10;1.00;;;;;;6075676;23;20272;-83
2021/12/15 06:10:33;;;;;;;28.77;21.95;;;9.20;1.00;;;;;;6074517;23;20457;-83
2021/12/15 06:13:02;;;;;;;35.88;26.88;;;9.20;1.00;;;;;;6065695;23;20344;-82
2021/12/15 06:15:30;;;;;;;34.00;26.08;;;9.20;1.00;;;;;;6068392;23;20761;-83
2021/12/15 06:18:00;;;;;;;31.38;22.70;;;9.20;1.00;;;;;;6069468;23;20259;-83
2021/12/15 06:20:29;;;;;;;30.98;20.90;;;9.20;1.00;;;;;;6079363;23;20185;-83
2021/12/15 06:22:59;;;;;;;34.33;23.27;;;9.20;1.00;;;;;;6086013;23;20189;-84
2021/12/15 06:25:28;;;;;;;33.17;23.17;;;9.20;1.00;;;;;;6086326;23;20432;-83
2021/12/15 06:27:56;;;;;;;34.72;23.65;;;9.20;1.00;;;;;;6088198;23;20409;-83
2021/12/15 06:30:23;;;;;;;31.33;22.08;;;9.20;1.00;;;;;;6090647;23;20194;-82
2021/12/15 06:32:50;;;;;;;33.75;23.27;;;9.10;1.00;;;;;;6089266;23;20181;-82
2021/12/15 06:35:17;;;;;;;35.97;25.02;;;9.20;1.00;;;;;;6089878;23;20197;-82
2021/12/15 06:37:46;;;;;;;32.05;23.15;;;9.20;1.00;;;;;;6085444;23;20276;-81
2021/12/15 06:40:14;;;;;;;32.77;23.10;;;9.20;1.00;;;;;;6082279;23;20195;-82
2021/12/15 06:42:43;;;;;;;35.00;23.95;;;9.20;1.00;;;;;;6069997;23;20408;-83
2021/12/15 06:45:14;;;;;;;35.38;23.55;;;9.20;1.00;;;;;;6071577;23;20257;-83
2021/12/15 06:58:53;;;;;;;32.92;22.95;;;9.20;1.00;;;;;;6069793;23;20272;-83
2021/12/15 07:01:23;;;;;;;103.18;76.65;;;9.10;1.00;;;;;;6063196;23;20334;-83
2021/12/15 07:03:50;;;;;;;32.05;23.80;;;9.20;1.00;;;;;;6059345;23;20221;-83
2021/12/15 07:06:19;;;;;;;24.23;19.55;;;9.20;1.00;;;;;;6068815;23;20199;-83
2021/12/15 07:08:47;;;;;;;29.63;21.73;;;9.20;1.00;;;;;;6068994;23;20212;-84
2021/12/15 07:11:14;;;;;;;29.67;22.35;;;9.20;1.00;;;;;;6069686;23;20849;-84
2021/12/15 07:13:41;;;;;;;29.83;21.60;;;9.20;1.00;;;;;;6095220;23;20277;-83
2021/12/15 07:16:10;;;;;;;30.60;21.23;;;9.10;1.00;;;;;;6089274;23;20252;-83
2021/12/15 07:18:49;;;;;;;29.73;22.15;;;9.20;1.00;;;;;;6067774;23;20201;-84
2021/12/15 07:21:21;;;;;;;27.50;20.97;;;9.20;1.00;;;;;;6074529;23;20194;-83
2021/12/15 07:23:50;;;;;;;28.07;20.67;;;9.20;1.00;;;;;;6088087;23;20392;-83
2021/12/15 07:26:17;;;;;;;27.90;20.17;;;9.10;1.00;;;;;;6065882;23;20380;-83
2021/12/15 07:28:45;;;;;;;28.58;18.90;;;9.10;1.00;;;;;;6068599;23;20892;-83
2021/12/15 07:31:16;;;;;;;27.55;19.52;;;9.10;1.00;;;;;;6108565;23;20217;-81
2021/12/15 07:33:43;;;;;;;31.30;20.33;;;9.10;1.00;;;;;;6084004;23;20194;-83
2021/12/15 07:36:10;;;;;;;25.85;18.90;;;9.10;1.00;;;;;;6089346;23;20197;-85
2021/12/15 07:38:41;;;;;;;24.70;19.65;;;9.10;1.00;;;;;;6087729;23;20194;-84
2021/12/15 07:41:17;;;;;;;27.42;19.25;;;9.10;1.00;;;;;;6086760;23;20237;-84
2021/12/15 07:43:44;;;;;;;29.65;19.88;;;9.10;1.00;;;;;;6087380;23;20192;-85
2021/12/15 07:46:14;;;;;;;29.55;19.83;;;9.10;1.00;;;;;;6087022;23;20419;-85
2021/12/15 07:48:41;;;;;;;27.20;20.45;;;9.10;1.00;;;;;;6083442;23;20223;-84
2021/12/15 07:51:10;;;;;;;28.40;20.17;;;9.20;1.00;;;;;;6082389;23;20598;-85
2021/12/15 07:53:39;;;;;;;23.60;18.27;;;9.20;1.00;;;;;;6072744;23;20464;-83
2021/12/15 07:56:08;;;;;;;25.48;18.98;;;9.20;1.00;;;;;;6068942;23;20423;-84
2021/12/15 07:58:38;;;;;;;26.10;18.07;;;9.20;1.00;;;;;;6065305;23;20211;-85
2021/12/15 08:01:06;;;;;;;25.03;19.33;;;9.20;1.00;;;;;;6086641;23;20410;-86
2021/12/15 08:03:37;;;;;;;26.80;18.57;;;9.20;1.00;;;;;;6064935;23;20401;-85
2021/12/15 08:06:04;;;;;;;23.73;17.95;;;9.20;1.00;;;;;;6065107;23;20422;-84
2021/12/15 08:08:31;;;;;;;25.10;17.88;;;9.20;1.00;;;;;;6088101;23;21603;-85
2021/12/15 08:10:59;;;;;;;23.38;18.48;;;9.20;1.00;;;;;;6068261;23;20202;-85
2021/12/15 08:13:28;;;;;;;23.90;18.27;;;9.20;1.00;;;;;;6062933;23;20276;-83
2021/12/15 08:15:55;;;;;;;23.08;17.58;;;9.30;1.00;;;;;;6061347;23;20435;-81
2021/12/15 08:18:23;;;;;;;25.33;19.17;;;9.30;1.00;;;;;;6064057;23;20197;-80
2021/12/15 08:20:51;;;;;;;25.53;18.97;;;9.30;1.00;;;;;;6067284;23;20196;-82
2021/12/15 08:23:19;;;;;;;23.60;18.90;;;9.30;1.00;;;;;;6069610;23;20407;-82
2021/12/15 08:25:46;;;;;;;23.70;18.50;;;9.40;1.00;;;;;;6062755;23;20402;-80
2021/12/15 08:28:14;;;;;;;23.07;17.83;;;9.40;1.00;;;;;;6061699;23;20425;-79
2021/12/15 08:30:43;;;;;;;27.98;19.40;;;9.40;1.00;;;;;;6060024;23;20401;-82
2021/12/15 08:33:16;;;;;;;25.73;18.30;;;9.40;1.00;;;;;;6067967;23;20181;-78
2021/12/15 08:35:47;;;;;;;22.47;17.10;;;9.40;1.00;;;;;;6087181;23;20394;-83
2021/12/15 08:38:16;;;;;;;22.75;16.70;;;9.40;1.00;;;;;;6076184;23;20416;-83
2021/12/15 08:40:44;;;;;;;25.10;18.33;;;9.40;1.00;;;;;;6073858;23;20224;-82
2021/12/15 08:43:13;;;;;;;24.33;17.37;;;9.40;1.00;;;;;;6072189;23;21491;-83
2021/12/15 08:45:45;;;;;;;24.25;17.35;;;9.40;1.00;;;;;;6070314;23;20416;-84
2021/12/15 08:48:12;;;;;;;25.25;18.55;;;9.40;1.00;;;;;;6070704;23;20239;-85
2021/12/15 08:50:42;;;;;;;24.50;19.08;;;9.40;1.00;;;;;;6069488;23;20212;-84
2021/12/15 08:53:12;;;;;;;22.52;17.02;;;9.40;1.00;;;;;;6091763;23;20193;-82
2021/12/15 08:55:43;;;;;;;24.17;17.38;;;9.40;1.00;;;;;;6072494;23;20193;-84
2021/12/15 08:58:12;;;;;;;24.70;18.53;;;9.40;1.00;;;;;;6067102;23;20277;-84
2021/12/15 09:00:42;;;;;;;25.95;18.02;;;9.40;1.00;;;;;;6071006;23;20376;-82
2021/12/15 09:03:10;;;;;;;27.47;18.80;;;9.50;1.00;;;;;;6073221;23;20200;-84
2021/12/15 09:05:38;;;;;;;26.25;19.52;;;9.50;1.00;;;;;;6077272;23;20479;-82
2021/12/15 09:08:07;;;;;;;25.10;19.05;;;9.60;1.00;;;;;;6110099;23;20843;-81
2021/12/15 09:10:36;;;;;;;25.37;19.17;;;9.60;1.00;;;;;;6063853;23;20204;-83
2021/12/15 09:13:05;;;;;;;24.73;19.70;;;9.60;1.00;;;;;;6092125;23;20903;-83
2021/12/15 09:15:32;;;;;;;27.98;19.55;;;9.70;1.00;;;;;;6069534;23;20405;-83
2021/12/15 09:18:00;;;;;;;31.02;23.77;;;9.80;1.00;;;;;;6071676;23;20339;-84
2021/12/15 09:20:29;;;;;;;26.73;20.50;;;9.80;1.00;;;;;;6071981;23;20210;-84
2021/12/15 09:22:58;;;;;;;29.67;20.10;;;9.80;1.00;;;;;;6070207;23;20445;-86
2021/12/15 09:25:26;;;;;;;27.87;20.37;;;9.90;1.00;;;;;;6076589;23;20533;-83
2021/12/15 09:27:53;;;;;;;26.60;19.30;;;9.90;1.00;;;;;;6075512;23;20404;-83
2021/12/15 09:30:22;;;;;;;26.60;19.87;;;9.90;1.00;;;;;;6093532;23;20505;-84
2021/12/15 09:32:50;;;;;;;27.43;20.77;;;9.90;1.00;;;;;;6091603;23;21239;-84
2021/12/15 09:35:19;;;;;;;25.87;19.10;;;9.90;1.00;;;;;;6075995;23;20409;-81
2021/12/15 09:37:47;;;;;;;23.25;18.52;;;9.90;1.00;;;;;;6081747;23;20373;-81
2021/12/15 09:40:18;;;;;;;26.93;21.97;;;9.90;1.00;;;;;;6067307;23;21238;-80
2021/12/15 09:42:46;;;;;;;29.40;24.27;;;10.00;1.00;;;;;;6071758;23;20374;-79
2021/12/15 09:45:24;;;;;;;39.70;33.20;;;10.10;1.00;;;;;;6076783;23;20402;-79
2021/12/15 09:56:38;;;;;;;33.95;24.13;;;10.00;1.00;;;;;;6076385;23;20402;-80
2021/12/15 10:02:04;;;;;;;26.50;19.30;;;10.00;1.00;;;;;;6064104;23;20408;-78
2021/12/15 10:04:42;;;;;;;25.73;19.83;;;10.00;1.00;;;;;;6069063;23;20408;-77
2021/12/15 10:10:37;;;;;;;24.60;17.60;;;10.00;1.00;;;;;;6071342;23;20188;-80
2021/12/15 10:18:33;;;;;;;32.30;21.70;;;10.20;1.00;;;;;;6012896;23;21262;-79
2021/12/15 10:21:04;;;;;;;26.65;20.27;;;10.10;1.00;;;;;;6060003;23;20440;-80
2021/12/15 10:23:37;;;;;;;25.35;18.42;;;10.10;1.00;;;;;;6062942;23;20278;-82
2021/12/15 10:26:05;;;;;;;26.17;20.10;;;10.10;1.00;;;;;;6056111;23;20192;-80
2021/12/15 10:28:34;;;;;;;26.55;19.27;;;10.00;1.00;;;;;;6057438;23;20448;-78
2021/12/15 10:31:05;;;;;;;27.20;20.33;;;10.10;1.00;;;;;;6058793;23;20353;-82
2021/12/15 10:33:35;;;;;;;27.93;20.33;;;10.10;1.00;;;;;;6054369;23;20394;-81
2021/12/15 10:36:07;;;;;;;27.73;19.50;;;10.20;1.00;;;;;;6065592;23;20350;-80
2021/12/15 10:38:40;;;;;;;26.50;18.70;;;10.10;1.00;;;;;;6078187;23;20446;-81
2021/12/15 10:41:09;;;;;;;25.08;19.38;;;10.10;1.00;;;;;;6065752;23;20425;-78
2021/12/15 10:43:40;;;;;;;29.70;20.47;;;10.10;1.00;;;;;;6063924;23;20252;-78
2021/12/15 10:46:10;;;;;;;26.00;18.93;;;10.20;1.00;;;;;;6069071;23;20398;-77
2021/12/15 10:48:45;;;;;;;24.50;19.17;;;10.20;1.00;;;;;;6059961;23;21264;-80
2021/12/15 10:51:34;;;;;;;21.43;17.77;;;10.20;1.00;;;;;;6053598;23;20429;-78
2021/12/15 10:54:04;;;;;;;20.63;16.90;;;10.30;1.00;;;;;;6061453;23;20390;-84
2021/12/15 10:56:34;;;;;;;22.83;18.57;;;10.20;1.00;;;;;;6061902;23;20401;-84
2021/12/15 10:59:06;;;;;;;21.27;17.10;;;10.20;1.00;;;;;;6060451;23;20410;-82
2021/12/15 11:01:54;;;;;;;22.53;16.73;;;10.20;1.00;;;;;;6083645;23;21240;-83
2021/12/15 11:04:45;;;;;;;21.80;16.00;;;10.20;1.00;;;;;;6059003;23;20433;-87
2021/12/15 11:07:23;;;;;;;21.87;16.90;;;10.10;1.00;;;;;;6068861;23;20409;-83
2021/12/15 11:09:56;;;;;;;25.07;17.97;;;10.10;1.00;;;;;;6086857;23;20541;-83
2021/12/15 11:12:27;;;;;;;21.97;16.17;;;10.10;1.00;;;;;;6064255;23;20382;-82
2021/12/15 11:14:57;;;;;;;22.10;16.70;;;10.00;1.00;;;;;;6065725;23;20401;-81
2021/12/15 11:17:26;;;;;;;20.90;16.50;;;10.10;1.00;;;;;;6063453;23;21540;-84
2021/12/15 11:20:04;;;;;;;22.07;15.20;;;10.10;1.00;;;;;;6057171;23;21097;-83
2021/12/15 11:22:55;;;;;;;18.13;14.60;;;10.10;1.00;;;;;;6061010;23;20500;-82
2021/12/15 11:25:29;;;;;;;24.93;18.03;;;10.20;1.00;;;;;;6064096;23;20439;-84
2021/12/15 11:28:02;;;;;;;22.30;15.15;;;10.10;1.00;;;;;;6061751;23;20448;-83
2021/12/15 11:30:38;;;;;;;18.50;15.00;;;10.20;1.00;;;;;;6065917;23;20344;-87
2021/12/15 11:53:40;;;;;;;16.73;14.23;;;10.30;1.00;;;;;;6049405;23;20374;-86
2021/12/15 11:56:30;;;;;;;18.93;14.63;;;10.40;1.00;;;;;;6062790;23;20403;-86
2021/12/15 11:59:04;;;;;;;19.40;15.27;;;10.40;1.00;;;;;;6096568;23;20412;-86
2021/12/15 12:01:44;;;;;;;17.70;14.10;;;10.40;1.00;;;;;;6097152;23;20974;-86
2021/12/15 12:04:20;;;;;;;19.03;14.17;;;10.50;1.00;;;;;;6099814;23;20888;-85
2021/12/15 12:06:52;;;;;;;17.03;14.67;;;10.50;1.00;;;;;;6099099;23;20451;-87
2021/12/15 12:09:21;;;;;;;22.30;14.57;;;10.60;1.00;;;;;;6088416;23;20460;-84
2021/12/15 12:11:52;;;;;;;16.90;13.93;;;10.70;1.00;;;;;;6093795;23;20383;-82
2021/12/15 12:14:37;;;;;;;16.90;13.80;;;10.80;1.00;;;;;;6092977;23;20388;-83
2021/12/15 12:17:12;;;;;;;18.73;16.10;;;11.00;1.00;;;;;;6070136;23;20439;-80
2021/12/15 12:19:44;;;;;;;18.50;14.13;;;11.10;1.00;;;;;;6098251;23;20416;-82
2021/12/15 12:22:14;;;;;;;16.93;14.60;;;11.20;1.00;;;;;;6105745;23;21064;-83
2021/12/15 12:24:43;;;;;;;15.07;12.87;;;11.20;1.00;;;;;;6094689;23;20468;-82
2021/12/15 12:27:11;;;;;;;16.60;11.20;;;11.20;1.00;;;;;;6102502;23;20377;-82
2021/12/15 12:29:39;;;;;;;14.20;11.73;;;11.20;1.00;;;;;;6098705;23;20412;-85
2021/12/15 12:32:07;;;;;;;14.63;11.17;;;11.20;1.00;;;;;;6093149;23;20632;-83
2021/12/15 12:34:34;;;;;;;14.60;11.10;;;11.30;1.00;;;;;;6091570;23;21288;-84
2021/12/15 12:37:01;;;;;;;14.30;11.10;;;11.40;1.00;;;;;;6065469;23;20457;-80
2021/12/15 12:39:40;;;;;;;13.93;12.33;;;11.40;1.00;;;;;;6058817;23;20484;-82
2021/12/15 12:42:09;;;;;;;17.53;13.00;;;11.40;1.00;;;;;;6110409;23;20405;-80
2021/12/15 12:44:39;;;;;;;16.37;11.70;;;11.40;1.00;;;;;;6076705;23;20373;-83
2021/12/15 12:47:11;;;;;;;13.90;11.60;;;11.40;1.00;;;;;;6091101;23;20457;-81
2021/12/15 13:01:20;;;;;;;18.00;12.77;;;11.10;1.00;;;;;;6095103;23;20399;-82
2021/12/15 13:03:53;;;;;;;16.20;11.77;;;11.10;1.00;;;;;;6089529;23;20514;-82
2021/12/15 13:06:23;;;;;;;14.73;10.93;;;11.10;1.00;;;;;;6088396;23;21131;-82
2021/12/15 13:08:55;;;;;;;14.57;11.20;;;11.00;1.00;;;;;;6086903;23;20452;-80
2021/12/15 13:11:36;;;;;;;14.47;12.00;;;11.00;1.00;;;;;;6085816;23;21568;-81
2021/12/15 13:14:08;;;;;;;16.73;12.00;;;11.00;1.00;;;;;;6087676;23;20424;-83
2021/12/15 13:16:47;;;;;;;14.83;11.87;;;11.00;1.00;;;;;;6089025;23;20391;-82
2021/12/15 13:19:20;;;;;;;16.67;11.50;;;11.00;1.00;;;;;;6088805;23;20392;-84
2021/12/15 13:22:15;;;;;;;17.33;11.87;;;11.00;1.00;;;;;;6097281;23;20803;-83
2021/12/15 13:30:39;;;;;;;13.40;10.87;;;11.00;1.00;;;;;;6089217;23;20396;-81
2021/12/15 13:33:13;;;;;;;14.23;11.53;;;11.00;1.00;;;;;;6093871;23;20443;-85
2021/12/15 13:35:44;;;;;;;14.37;11.33;;;11.00;1.00;;;;;;6095517;23;20427;-84
2021/12/15 13:38:13;;;;;;;12.90;11.20;;;11.00;1.00;;;;;;6087038;23;20486;-83
2021/12/15 13:41:02;;;;;;;15.77;12.60;;;10.90;1.00;;;;;;6112785;23;20472;-84
2021/12/15 13:43:38;;;;;;;16.73;12.53;;;10.90;1.00;;;;;;6105319;23;20387;-81
2021/12/15 13:46:08;;;;;;;14.07;12.27;;;10.90;1.00;;;;;;6093267;23;20546;-82
2021/12/15 13:48:58;;;;;;;14.93;12.47;;;10.90;1.00;;;;;;6093550;23;20416;-82
2021/12/15 13:52:03;;;;;;;17.50;12.63;;;10.90;1.00;;;;;;6091340;23;20417;-81
2021/12/15 13:54:49;;;;;;;16.67;11.60;;;10.90;1.00;;;;;;6089534;23;20393;-81
2021/12/15 13:57:21;;;;;;;15.33;11.50;;;10.90;1.00;;;;;;6085373;23;20464;-84
2021/12/15 13:59:58;;;;;;;17.90;13.27;;;10.90;1.00;;;;;;6105157;23;20480;-84
2021/12/15 14:02:28;;;;;;;23.37;14.47;;;10.90;1.00;;;;;;6095372;23;20399;-84
2021/12/15 14:04:58;;;;;;;18.83;13.53;;;10.90;1.00;;;;;;6099210;23;20456;-82
2021/12/15 14:07:41;;;;;;;14.90;11.17;;;10.90;1.00;;;;;;6096402;23;20424;-83
2021/12/15 14:10:47;;;;;;;17.70;12.10;;;10.90;1.00;;;;;;6094702;23;20455;-82
2021/12/15 14:13:15;;;;;;;17.97;12.07;;;10.90;1.00;;;;;;6074653;23;20429;-83
2021/12/15 14:15:47;;;;;;;16.63;11.90;;;10.90;1.00;;;;;;6088359;23;20416;-83
2021/12/15 14:18:16;;;;;;;19.10;11.80;;;10.80;1.00;;;;;;6089907;23;20417;-82
2021/12/15 14:20:48;;;;;;;17.90;13.20;;;10.80;1.00;;;;;;6094854;23;20565;-81
2021/12/15 14:23:18;;;;;;;20.03;13.53;;;10.80;1.00;;;;;;6090974;23;20446;-82
2021/12/15 14:25:46;;;;;;;16.30;12.77;;;10.80;1.00;;;;;;6091014;23;20402;-82
2021/12/15 14:28:20;;;;;;;17.37;13.50;;;10.80;1.00;;;;;;6084777;23;20409;-83
2021/12/15 14:30:58;;;;;;;21.37;13.57;;;10.70;1.00;;;;;;6086074;23;20516;-81
2021/12/15 14:33:28;;;;;;;20.53;14.60;;;10.80;1.00;;;;;;6086686;23;20519;-85
2021/12/15 14:36:01;;;;;;;17.23;13.10;;;10.80;1.00;;;;;;6089986;23;20396;-82